createdAt,value
2018-09-21T00:00:09.915Z,0.00
2018-09-21T00:01:09.941Z,0.00
2018-09-21T00:02:09.970Z,0.00
2018-09-21T00:03:09.981Z,0.00
2018-09-21T00:04:10.010Z,0.00
2018-09-21T00:05:10.020Z,0.00
2018-09-21T00:06:10.046Z,0.00
2018-09-21T00:07:10.061Z,0.00
2018-09-21T00:08:10.087Z,0.00
2018-09-21T00:09:10.114Z,0.00
2018-09-21T00:10:10.126Z,0.00
2018-09-21T00:11:10.151Z,0.00
2018-09-21T00:12:10.166Z,0.00
2018-09-21T00:13:10.190Z,0.00
2018-09-21T00:14:10.215Z,0.00
2018-09-21T00:15:10.231Z,0.00
2018-09-21T00:16:10.261Z,0.00
2018-09-21T00:17:10.270Z,0.00
2018-09-21T00:18:10.295Z,0.00
2018-09-21T00:19:10.309Z,0.00
2018-09-21T00:20:10.336Z,0.00
2018-09-21T00:21:10.361Z,0.00
2018-09-21T00:22:10.374Z,0.00
2018-09-21T00:23:10.400Z,0.00
2018-09-21T00:24:10.414Z,0.00
2018-09-21T00:25:10.439Z,0.00
2018-09-21T00:26:10.454Z,0.00
2018-09-21T00:27:10.482Z,0.00
2018-09-21T00:28:10.518Z,0.00
2018-09-21T00:29:10.519Z,0.00
2018-09-21T00:30:10.546Z,0.00
2018-09-21T00:31:10.559Z,0.00
2018-09-21T00:32:10.587Z,0.00
2018-09-21T00:33:10.598Z,0.00
2018-09-21T00:34:10.623Z,0.00
2018-09-21T00:35:10.650Z,0.00
2018-09-21T00:36:10.662Z,0.00
2018-09-21T00:37:10.688Z,0.00
2018-09-21T00:38:10.703Z,0.00
2018-09-21T00:39:10.730Z,0.00
2018-09-21T00:40:10.747Z,0.00
2018-09-21T00:41:10.768Z,0.00
2018-09-21T00:42:10.810Z,0.00
2018-09-21T00:43:10.808Z,0.00
2018-09-21T00:44:10.834Z,0.00
2018-09-21T00:45:10.847Z,0.00
2018-09-21T00:46:10.873Z,0.00
2018-09-21T00:47:10.900Z,0.00
2018-09-21T00:48:10.913Z,0.00
2018-09-21T00:49:10.939Z,0.00
2018-09-21T00:50:10.951Z,0.00
2018-09-21T00:51:10.979Z,0.00
2018-09-21T00:52:10.991Z,0.00
2018-09-21T00:53:11.018Z,0.00
2018-09-21T00:54:11.044Z,0.00
2018-09-21T00:55:11.056Z,0.00
2018-09-21T00:56:11.095Z,0.00
2018-09-21T00:57:11.096Z,0.00
2018-09-21T00:58:11.123Z,0.00
2018-09-21T00:59:11.152Z,0.00
2018-09-21T01:00:11.161Z,0.00
2018-09-21T01:01:11.188Z,0.00
2018-09-21T01:02:11.202Z,0.00
2018-09-21T01:03:11.237Z,0.00
2018-09-21T01:04:11.241Z,0.00
2018-09-21T01:05:11.267Z,0.00
2018-09-21T01:06:11.294Z,0.00
2018-09-21T01:07:11.306Z,0.00
2018-09-21T01:08:11.333Z,0.00
2018-09-21T01:09:11.347Z,0.00
2018-09-21T01:10:11.387Z,0.00
2018-09-21T01:11:11.386Z,0.00
2018-09-21T01:12:11.412Z,0.00
2018-09-21T01:13:11.427Z,0.00
2018-09-21T01:14:11.451Z,0.00
2018-09-21T01:15:11.476Z,0.00
2018-09-21T01:16:11.491Z,0.00
2018-09-21T01:17:11.517Z,0.00
2018-09-21T01:18:11.529Z,0.00
2018-09-21T01:19:11.556Z,0.00
2018-09-21T01:20:11.569Z,0.00
2018-09-21T01:21:11.596Z,0.00
2018-09-21T01:22:11.621Z,0.00
2018-09-21T01:23:11.634Z,0.00
2018-09-21T01:24:11.661Z,0.00
2018-09-21T01:25:11.680Z,0.00
2018-09-21T01:26:11.702Z,0.00
2018-09-21T01:27:11.729Z,0.00
2018-09-21T01:28:11.739Z,0.00
2018-09-21T01:29:11.766Z,0.00
2018-09-21T01:30:11.780Z,0.00
2018-09-21T01:31:11.811Z,0.00
2018-09-21T01:32:11.819Z,0.00
2018-09-21T01:33:11.846Z,0.00
2018-09-21T01:34:11.859Z,0.00
2018-09-21T01:35:11.885Z,0.00
2018-09-21T01:36:11.911Z,0.00
2018-09-21T01:37:11.923Z,0.00
2018-09-21T01:38:11.963Z,0.00
2018-09-21T01:39:11.966Z,0.00
2018-09-21T01:40:11.992Z,0.00
2018-09-21T01:41:12.003Z,0.00
2018-09-21T01:42:12.028Z,0.00
2018-09-21T01:43:12.054Z,0.00
2018-09-21T01:44:12.068Z,0.00
2018-09-21T01:45:12.095Z,0.00
2018-09-21T01:46:12.107Z,0.00
2018-09-21T01:47:12.134Z,0.00
2018-09-21T01:48:12.148Z,0.00
2018-09-21T01:49:12.178Z,0.00
2018-09-21T01:50:12.199Z,0.00
2018-09-21T01:51:12.212Z,0.00
2018-09-21T01:52:12.238Z,0.00
2018-09-21T01:53:12.252Z,0.00
2018-09-21T01:54:12.279Z,0.00
2018-09-21T01:55:12.292Z,0.00
2018-09-21T01:56:12.317Z,0.00
2018-09-21T01:57:12.343Z,0.00
2018-09-21T01:58:12.360Z,0.00
2018-09-21T01:59:12.383Z,0.00
2018-09-21T02:00:12.397Z,0.00
2018-09-21T02:01:12.422Z,0.00
2018-09-21T02:02:12.439Z,0.00
2018-09-21T02:03:12.462Z,0.00
2018-09-21T02:04:12.477Z,0.00
2018-09-21T02:05:12.501Z,0.00
2018-09-21T02:06:12.527Z,0.00
2018-09-21T02:07:12.542Z,0.00
2018-09-21T02:08:12.567Z,0.00
2018-09-21T02:09:12.581Z,0.00
2018-09-21T02:10:12.607Z,0.00
2018-09-21T02:11:12.632Z,0.00
2018-09-21T02:12:12.647Z,0.00
2018-09-21T02:13:12.672Z,0.00
2018-09-21T02:14:12.685Z,0.00
2018-09-21T02:15:12.711Z,0.00
2018-09-21T02:16:12.725Z,0.00
2018-09-21T02:17:12.756Z,0.00
2018-09-21T02:18:12.765Z,0.00
2018-09-21T02:19:12.803Z,0.00
2018-09-21T02:20:12.816Z,0.00
2018-09-21T02:21:12.830Z,0.00
2018-09-21T02:22:12.859Z,0.00
2018-09-21T02:23:12.869Z,0.00
2018-09-21T02:24:12.895Z,0.00
2018-09-21T02:25:12.921Z,0.00
2018-09-21T02:26:12.936Z,0.00
2018-09-21T02:27:12.961Z,0.00
2018-09-21T02:28:12.974Z,0.00
2018-09-21T02:29:13.000Z,0.00
2018-09-21T02:30:13.014Z,0.00
2018-09-21T02:31:13.044Z,0.00
2018-09-21T02:32:13.055Z,0.00
2018-09-21T02:33:13.079Z,0.00
2018-09-21T02:34:13.105Z,0.00
2018-09-21T02:35:13.122Z,0.00
2018-09-21T02:36:13.146Z,0.00
2018-09-21T02:37:13.163Z,0.00
2018-09-21T02:38:13.184Z,0.00
2018-09-21T02:39:13.214Z,0.00
2018-09-21T02:40:13.227Z,0.00
2018-09-21T02:41:13.248Z,0.00
2018-09-21T02:42:13.265Z,0.00
2018-09-21T02:43:13.293Z,0.00
2018-09-21T02:44:13.304Z,0.00
2018-09-21T02:45:13.334Z,0.00
2018-09-21T02:46:13.352Z,0.00
2018-09-21T02:47:13.368Z,0.00
2018-09-21T02:48:13.382Z,0.00
2018-09-21T02:49:13.408Z,0.00
2018-09-21T02:50:13.434Z,0.00
2018-09-21T02:51:13.454Z,0.00
2018-09-21T02:52:13.474Z,0.00
2018-09-21T02:53:13.499Z,0.00
2018-09-21T02:54:13.518Z,0.00
2018-09-21T02:55:13.528Z,0.00
2018-09-21T02:56:13.553Z,0.00
2018-09-21T02:57:13.579Z,0.00
2018-09-21T02:58:13.592Z,0.00
2018-09-21T02:59:13.621Z,0.00
2018-09-21T03:00:13.675Z,0.00
2018-09-21T03:01:13.657Z,0.00
2018-09-21T03:02:13.671Z,0.00
2018-09-21T03:03:13.699Z,0.00
2018-09-21T03:04:13.711Z,0.00
2018-09-21T03:05:13.737Z,0.00
2018-09-21T03:06:13.762Z,0.00
2018-09-21T03:07:13.787Z,0.00
2018-09-21T03:08:13.803Z,0.00
2018-09-21T03:09:13.815Z,0.00
2018-09-21T03:10:13.842Z,0.00
2018-09-21T03:11:13.889Z,0.00
2018-09-21T03:12:13.881Z,0.00
2018-09-21T03:13:14.002Z,0.00
2018-09-21T03:14:13.921Z,0.00
2018-09-21T03:15:13.946Z,0.00
2018-09-21T03:16:13.960Z,0.00
2018-09-21T03:17:13.985Z,0.00
2018-09-21T03:18:13.999Z,0.00
2018-09-21T03:19:14.025Z,0.00
2018-09-21T03:20:14.040Z,0.00
2018-09-21T03:21:14.068Z,0.00
2018-09-21T03:22:14.091Z,0.00
2018-09-21T03:23:14.106Z,0.00
2018-09-21T03:24:14.129Z,0.00
2018-09-21T03:25:14.147Z,0.00
2018-09-21T03:26:14.170Z,0.00
2018-09-21T03:27:14.185Z,0.00
2018-09-21T03:28:14.210Z,0.00
2018-09-21T03:29:14.235Z,0.00
2018-09-21T03:30:14.249Z,0.00
2018-09-21T03:31:14.274Z,0.00
2018-09-21T03:32:14.288Z,0.00
2018-09-21T03:33:14.319Z,0.00
2018-09-21T03:34:14.328Z,0.00
2018-09-21T03:35:14.404Z,0.00
2018-09-21T03:36:14.373Z,0.00
2018-09-21T03:37:14.394Z,0.00
2018-09-21T03:38:14.419Z,0.00
2018-09-21T03:39:14.437Z,0.00
2018-09-21T03:40:14.460Z,0.00
2018-09-21T03:41:14.472Z,0.00
2018-09-21T03:42:14.500Z,0.00
2018-09-21T03:43:14.524Z,0.00
2018-09-21T03:44:14.538Z,0.00
2018-09-21T03:45:14.564Z,0.00
2018-09-21T03:46:14.578Z,0.00
2018-09-21T03:47:14.602Z,0.00
2018-09-21T03:48:14.620Z,0.00
2018-09-21T03:49:14.667Z,0.00
2018-09-21T03:50:14.656Z,0.00
2018-09-21T03:51:14.684Z,0.00
2018-09-21T03:52:14.708Z,0.00
2018-09-21T03:53:14.722Z,0.00
2018-09-21T03:54:14.752Z,0.00
2018-09-21T03:55:14.765Z,0.00
2018-09-21T03:56:14.786Z,0.00
2018-09-21T03:57:14.808Z,0.00
2018-09-21T03:58:14.827Z,0.00
2018-09-21T03:59:14.857Z,0.00
2018-09-21T04:00:14.865Z,0.00
2018-09-21T04:01:14.923Z,0.00
2018-09-21T04:02:14.906Z,0.00
2018-09-21T04:03:14.931Z,0.00
2018-09-21T04:04:14.944Z,0.00
2018-09-21T04:05:14.971Z,0.00
2018-09-21T04:06:14.998Z,0.00
2018-09-21T04:07:15.011Z,0.00
2018-09-21T04:08:15.036Z,0.00
2018-09-21T04:09:15.048Z,0.00
2018-09-21T04:10:15.075Z,0.00
2018-09-21T04:11:15.090Z,0.00
2018-09-21T04:12:15.115Z,0.00
2018-09-21T04:13:15.129Z,0.00
2018-09-21T04:14:15.160Z,0.00
2018-09-21T04:15:15.182Z,0.00
2018-09-21T04:16:15.194Z,0.00
2018-09-21T04:17:15.220Z,0.00
2018-09-21T04:18:15.233Z,0.00
2018-09-21T04:19:15.264Z,0.00
2018-09-21T04:20:15.273Z,0.00
2018-09-21T04:21:15.299Z,0.00
2018-09-21T04:22:15.330Z,0.00
2018-09-21T04:23:15.338Z,0.00
2018-09-21T04:24:15.365Z,0.00
2018-09-21T04:25:15.378Z,0.00
2018-09-21T04:26:15.404Z,0.00
2018-09-21T04:27:15.418Z,0.00
2018-09-21T04:28:15.443Z,0.00
2018-09-21T04:29:15.457Z,0.00
2018-09-21T04:30:15.489Z,0.00
2018-09-21T04:31:15.509Z,0.00
2018-09-21T04:32:15.521Z,0.00
2018-09-21T04:33:15.555Z,0.00
2018-09-21T04:34:15.562Z,0.00
2018-09-21T04:35:15.588Z,0.00
2018-09-21T04:36:15.673Z,0.00
2018-09-21T04:37:15.627Z,0.00
2018-09-21T04:38:15.652Z,0.00
2018-09-21T04:39:15.666Z,0.00
2018-09-21T04:40:15.693Z,0.00
2018-09-21T04:41:15.706Z,0.00
2018-09-21T04:42:15.733Z,0.00
2018-09-21T04:43:15.745Z,5.63
2018-09-21T04:44:15.774Z,5.63
2018-09-21T04:45:15.803Z,5.63
2018-09-21T04:46:15.811Z,5.63
2018-09-21T04:47:15.837Z,5.63
2018-09-21T04:48:15.851Z,5.63
2018-09-21T04:49:15.877Z,11.25
2018-09-21T04:50:15.902Z,11.25
2018-09-21T04:51:15.916Z,11.25
2018-09-21T04:52:15.944Z,11.25
2018-09-21T04:53:15.955Z,16.88
2018-09-21T04:54:15.985Z,16.88
2018-09-21T04:55:15.994Z,16.88
2018-09-21T04:56:16.021Z,16.88
2018-09-21T04:57:16.034Z,16.88
2018-09-21T04:58:16.061Z,22.50
2018-09-21T04:59:16.088Z,22.50
2018-09-21T05:00:16.099Z,22.50
2018-09-21T05:01:16.125Z,28.13
2018-09-21T05:02:16.139Z,28.13
2018-09-21T05:03:16.166Z,28.13
2018-09-21T05:04:16.191Z,33.75
2018-09-21T05:05:16.204Z,33.75
2018-09-21T05:06:16.231Z,39.38
2018-09-21T05:07:16.245Z,45.00
2018-09-21T05:08:16.270Z,45.00
2018-09-21T05:09:16.287Z,45.00
2018-09-21T05:10:16.322Z,50.63
2018-09-21T05:11:16.336Z,50.63
2018-09-21T05:12:16.349Z,56.25
2018-09-21T05:13:16.376Z,56.25
2018-09-21T05:14:16.393Z,61.88
2018-09-21T05:15:16.421Z,61.88
2018-09-21T05:16:16.429Z,67.50
2018-09-21T05:17:16.455Z,67.50
2018-09-21T05:18:16.481Z,67.50
2018-09-21T05:19:16.507Z,73.13
2018-09-21T05:20:16.522Z,78.75
2018-09-21T05:21:16.534Z,84.38
2018-09-21T05:22:16.560Z,90.00
2018-09-21T05:23:16.586Z,95.63
2018-09-21T05:24:16.599Z,106.88
2018-09-21T05:25:16.625Z,106.88
2018-09-21T05:26:16.638Z,106.88
2018-09-21T05:27:16.666Z,112.50
2018-09-21T05:28:16.692Z,118.13
2018-09-21T05:29:16.704Z,123.75
2018-09-21T05:30:16.729Z,135.00
2018-09-21T05:31:16.744Z,140.63
2018-09-21T05:32:16.769Z,151.88
2018-09-21T05:33:16.799Z,157.50
2018-09-21T05:34:16.820Z,168.75
2018-09-21T05:35:16.892Z,180.00
2018-09-21T05:36:16.859Z,196.88
2018-09-21T05:37:16.873Z,208.13
2018-09-21T05:38:16.900Z,208.13
2018-09-21T05:39:16.913Z,202.50
2018-09-21T05:40:16.938Z,202.50
2018-09-21T05:41:16.964Z,208.13
2018-09-21T05:42:16.978Z,208.13
2018-09-21T05:43:17.004Z,208.13
2018-09-21T05:44:17.030Z,213.75
2018-09-21T05:45:17.043Z,213.75
2018-09-21T05:46:17.068Z,219.38
2018-09-21T05:47:17.095Z,230.63
2018-09-21T05:48:17.108Z,236.25
2018-09-21T05:49:17.135Z,241.88
2018-09-21T05:50:17.160Z,241.88
2018-09-21T05:51:17.173Z,253.13
2018-09-21T05:52:17.198Z,253.13
2018-09-21T05:53:17.226Z,258.75
2018-09-21T05:54:17.239Z,258.75
2018-09-21T05:55:17.266Z,253.13
2018-09-21T05:56:17.355Z,253.13
2018-09-21T05:57:17.302Z,253.13
2018-09-21T05:58:17.331Z,253.13
2018-09-21T05:59:17.356Z,253.13
2018-09-21T06:00:17.369Z,247.50
2018-09-21T06:01:17.394Z,241.88
2018-09-21T06:02:17.461Z,247.50
2018-09-21T06:03:17.447Z,253.13
2018-09-21T06:04:17.459Z,275.63
2018-09-21T06:05:17.484Z,298.13
2018-09-21T06:06:17.511Z,315.00
2018-09-21T06:07:17.536Z,309.38
2018-09-21T06:08:17.550Z,315.00
2018-09-21T06:09:17.577Z,309.38
2018-09-21T06:10:17.603Z,315.00
2018-09-21T06:11:17.615Z,320.63
2018-09-21T06:12:17.640Z,326.25
2018-09-21T06:13:17.680Z,320.63
2018-09-21T06:14:17.692Z,320.63
2018-09-21T06:15:17.706Z,320.63
2018-09-21T06:16:17.731Z,326.25
2018-09-21T06:17:17.758Z,331.88
2018-09-21T06:18:17.788Z,343.13
2018-09-21T06:19:17.827Z,348.75
2018-09-21T06:20:17.837Z,354.38
2018-09-21T06:21:17.871Z,365.63
2018-09-21T06:22:17.872Z,371.25
2018-09-21T06:23:17.888Z,382.50
2018-09-21T06:24:17.913Z,393.75
2018-09-21T06:25:17.939Z,405.00
2018-09-21T06:26:17.965Z,405.00
2018-09-21T06:27:17.979Z,416.25
2018-09-21T06:28:18.003Z,416.25
2018-09-21T06:29:18.029Z,427.50
2018-09-21T06:30:18.068Z,433.13
2018-09-21T06:31:18.081Z,444.38
2018-09-21T06:32:18.095Z,455.63
2018-09-21T06:33:18.120Z,466.88
2018-09-21T06:34:18.150Z,478.13
2018-09-21T06:35:18.172Z,489.38
2018-09-21T06:36:18.198Z,495.00
2018-09-21T06:37:18.211Z,495.00
2018-09-21T06:38:18.236Z,506.25
2018-09-21T06:39:18.262Z,511.88
2018-09-21T06:40:18.289Z,511.88
2018-09-21T06:41:18.315Z,511.88
2018-09-21T06:42:18.352Z,506.25
2018-09-21T06:43:18.383Z,506.25
2018-09-21T06:44:18.379Z,500.63
2018-09-21T06:45:18.405Z,495.00
2018-09-21T06:46:18.430Z,495.00
2018-09-21T06:47:18.460Z,495.00
2018-09-21T06:48:18.482Z,483.75
2018-09-21T06:49:18.508Z,478.13
2018-09-21T06:50:18.520Z,478.13
2018-09-21T06:51:18.546Z,478.13
2018-09-21T06:52:18.572Z,483.75
2018-09-21T06:53:18.598Z,495.00
2018-09-21T06:54:18.624Z,500.63
2018-09-21T06:55:18.649Z,511.88
2018-09-21T06:56:18.681Z,511.88
2018-09-21T06:57:18.703Z,511.88
2018-09-21T06:58:18.714Z,511.88
2018-09-21T06:59:18.740Z,511.88
2018-09-21T07:00:18.767Z,511.88
2018-09-21T07:01:18.854Z,506.25
2018-09-21T07:02:18.844Z,511.88
2018-09-21T07:03:18.844Z,506.25
2018-09-21T07:04:18.869Z,489.38
2018-09-21T07:05:18.894Z,478.13
2018-09-21T07:06:18.924Z,461.25
2018-09-21T07:07:18.935Z,466.88
2018-09-21T07:08:18.959Z,444.38
2018-09-21T07:09:18.989Z,438.75
2018-09-21T07:10:19.012Z,438.75
2018-09-21T07:11:19.037Z,438.75
2018-09-21T07:12:19.064Z,433.13
2018-09-21T07:13:19.090Z,427.50
2018-09-21T07:14:19.128Z,421.88
2018-09-21T07:15:19.141Z,416.25
2018-09-21T07:16:19.166Z,410.63
2018-09-21T07:17:19.193Z,405.00
2018-09-21T07:18:19.217Z,393.75
2018-09-21T07:19:19.243Z,393.75
2018-09-21T07:20:19.257Z,388.13
2018-09-21T07:21:19.283Z,382.50
2018-09-21T07:22:19.311Z,376.88
2018-09-21T07:23:19.337Z,371.25
2018-09-21T07:24:19.359Z,376.88
2018-09-21T07:25:19.386Z,371.25
2018-09-21T07:26:19.412Z,371.25
2018-09-21T07:27:19.438Z,382.50
2018-09-21T07:28:19.463Z,382.50
2018-09-21T07:29:19.489Z,365.63
2018-09-21T07:30:19.516Z,348.75
2018-09-21T07:31:19.561Z,337.50
2018-09-21T07:32:19.566Z,331.88
2018-09-21T07:33:19.592Z,331.88
2018-09-21T07:34:19.622Z,331.88
2018-09-21T07:35:19.645Z,315.00
2018-09-21T07:36:19.669Z,292.50
2018-09-21T07:37:19.720Z,275.63
2018-09-21T07:38:19.708Z,270.00
2018-09-21T07:39:19.735Z,270.00
2018-09-21T07:40:19.760Z,270.00
2018-09-21T07:41:19.785Z,270.00
2018-09-21T07:42:19.811Z,275.63
2018-09-21T07:43:19.837Z,286.88
2018-09-21T07:44:19.869Z,292.50
2018-09-21T07:45:19.903Z,303.75
2018-09-21T07:46:19.914Z,315.00
2018-09-21T07:47:19.942Z,326.25
2018-09-21T07:48:19.966Z,331.88
2018-09-21T07:49:19.991Z,348.75
2018-09-21T07:50:20.018Z,348.75
2018-09-21T07:51:20.031Z,360.00
2018-09-21T07:52:20.058Z,371.25
2018-09-21T07:53:20.087Z,388.13
2018-09-21T07:54:20.115Z,405.00
2018-09-21T07:55:20.134Z,421.88
2018-09-21T07:56:20.159Z,433.13
2018-09-21T07:57:20.185Z,444.38
2018-09-21T07:58:20.212Z,444.38
2018-09-21T07:59:20.237Z,438.75
2018-09-21T08:00:20.265Z,444.38
2018-09-21T08:01:20.289Z,455.63
2018-09-21T08:02:20.315Z,461.25
2018-09-21T08:03:20.341Z,461.25
2018-09-21T08:04:20.355Z,461.25
2018-09-21T08:05:20.380Z,466.88
2018-09-21T08:06:20.408Z,466.88
2018-09-21T08:07:20.459Z,461.25
2018-09-21T08:08:20.455Z,461.25
2018-09-21T08:09:20.483Z,450.00
2018-09-21T08:10:20.507Z,438.75
2018-09-21T08:11:20.533Z,433.13
2018-09-21T08:12:20.559Z,421.88
2018-09-21T08:13:20.585Z,416.25
2018-09-21T08:14:20.614Z,433.13
2018-09-21T08:15:20.636Z,438.75
2018-09-21T08:16:20.677Z,433.13
2018-09-21T08:17:20.689Z,421.88
2018-09-21T08:18:20.712Z,410.63
2018-09-21T08:19:20.744Z,405.00
2018-09-21T08:20:20.767Z,399.38
2018-09-21T08:21:20.793Z,388.13
2018-09-21T08:22:20.832Z,376.88
2018-09-21T08:23:20.843Z,365.63
2018-09-21T08:24:20.868Z,365.63
2018-09-21T08:25:20.894Z,365.63
2018-09-21T08:26:20.920Z,365.63
2018-09-21T08:27:20.946Z,365.63
2018-09-21T08:28:20.971Z,371.25
2018-09-21T08:29:20.997Z,371.25
2018-09-21T08:30:21.022Z,360.00
2018-09-21T08:31:21.071Z,354.38
2018-09-21T08:32:21.062Z,354.38
2018-09-21T08:33:21.114Z,360.00
2018-09-21T08:34:21.116Z,354.38
2018-09-21T08:35:21.140Z,360.00
2018-09-21T08:36:21.165Z,360.00
2018-09-21T08:37:21.223Z,360.00
2018-09-21T08:38:21.217Z,354.38
2018-09-21T08:39:21.247Z,360.00
2018-09-21T08:40:21.268Z,365.63
2018-09-21T08:41:21.298Z,354.38
2018-09-21T08:42:21.319Z,365.63
2018-09-21T08:43:21.346Z,382.50
2018-09-21T08:44:21.371Z,393.75
2018-09-21T08:45:21.435Z,399.38
2018-09-21T08:46:21.423Z,399.38
2018-09-21T08:47:21.449Z,393.75
2018-09-21T08:48:21.479Z,388.13
2018-09-21T08:49:21.500Z,376.88
2018-09-21T08:50:21.526Z,371.25
2018-09-21T08:51:21.552Z,360.00
2018-09-21T08:52:21.577Z,354.38
2018-09-21T08:53:21.602Z,343.13
2018-09-21T08:54:21.634Z,331.88
2018-09-21T08:55:21.655Z,331.88
2018-09-21T08:56:21.684Z,331.88
2018-09-21T08:57:21.706Z,326.25
2018-09-21T08:58:21.981Z,320.63
2018-09-21T08:59:21.758Z,298.13
2018-09-21T09:00:21.785Z,320.63
2018-09-21T09:01:21.808Z,326.25
2018-09-21T09:02:21.834Z,331.88
2018-09-21T09:03:21.872Z,331.88
2018-09-21T09:04:21.897Z,331.88
2018-09-21T09:05:21.912Z,331.88
2018-09-21T09:06:21.939Z,331.88
2018-09-21T09:07:21.964Z,326.25
2018-09-21T09:08:21.989Z,326.25
2018-09-21T09:09:22.016Z,326.25
2018-09-21T09:10:22.052Z,326.25
2018-09-21T09:11:22.093Z,326.25
2018-09-21T09:12:22.092Z,326.25
2018-09-21T09:13:22.130Z,331.88
2018-09-21T09:14:22.158Z,326.25
2018-09-21T09:15:22.182Z,326.25
2018-09-21T09:16:22.206Z,326.25
2018-09-21T09:17:22.234Z,331.88
2018-09-21T09:18:22.258Z,331.88
2018-09-21T09:19:22.284Z,337.50
2018-09-21T09:20:22.327Z,343.13
2018-09-21T09:21:22.336Z,348.75
2018-09-21T09:22:22.361Z,360.00
2018-09-21T09:23:22.388Z,365.63
2018-09-21T09:24:22.414Z,371.25
2018-09-21T09:25:22.439Z,382.50
2018-09-21T09:26:22.492Z,405.00
2018-09-21T09:27:22.490Z,433.13
2018-09-21T09:28:22.515Z,444.38
2018-09-21T09:29:22.542Z,461.25
2018-09-21T09:30:22.581Z,461.25
2018-09-21T09:31:22.611Z,450.00
2018-09-21T09:32:22.619Z,461.25
2018-09-21T09:33:22.647Z,478.13
2018-09-21T09:34:22.670Z,489.38
2018-09-21T09:35:22.698Z,483.75
2018-09-21T09:36:22.722Z,472.50
2018-09-21T09:37:22.748Z,489.38
2018-09-21T09:38:22.774Z,506.25
2018-09-21T09:39:22.813Z,528.75
2018-09-21T09:40:22.838Z,545.63
2018-09-21T09:41:22.864Z,551.25
2018-09-21T09:42:22.889Z,562.50
2018-09-21T09:43:22.969Z,579.38
2018-09-21T09:44:22.941Z,596.25
2018-09-21T09:45:22.969Z,641.25
2018-09-21T09:46:22.993Z,663.75
2018-09-21T09:47:23.018Z,708.75
2018-09-21T09:48:23.144Z,731.25
2018-09-21T09:49:23.071Z,731.25
2018-09-21T09:50:23.107Z,742.50
2018-09-21T09:51:23.134Z,753.75
2018-09-21T09:52:23.159Z,725.63
2018-09-21T09:53:23.198Z,720.00
2018-09-21T09:54:23.212Z,714.38
2018-09-21T09:55:23.236Z,703.13
2018-09-21T09:56:23.262Z,714.38
2018-09-21T09:57:23.300Z,731.25
2018-09-21T09:58:23.327Z,770.63
2018-09-21T09:59:23.353Z,770.63
2018-09-21T10:00:23.381Z,753.75
2018-09-21T10:01:23.403Z,770.63
2018-09-21T10:02:23.429Z,753.75
2018-09-21T10:03:23.540Z,759.38
2018-09-21T10:04:23.494Z,748.13
2018-09-21T10:05:23.522Z,736.88
2018-09-21T10:06:23.548Z,720.00
2018-09-21T10:07:23.587Z,720.00
2018-09-21T10:08:23.608Z,736.88
2018-09-21T10:09:23.634Z,748.13
2018-09-21T10:10:23.719Z,742.50
2018-09-21T10:11:23.687Z,742.50
2018-09-21T10:12:23.712Z,759.38
2018-09-21T10:13:23.749Z,759.38
2018-09-21T10:14:23.775Z,765.00
2018-09-21T10:15:23.801Z,720.00
2018-09-21T10:16:23.843Z,697.50
2018-09-21T10:17:23.865Z,708.75
2018-09-21T10:18:23.891Z,714.38
2018-09-21T10:19:23.917Z,753.75
2018-09-21T10:20:23.943Z,821.25
2018-09-21T10:21:23.982Z,877.50
2018-09-21T10:22:24.007Z,849.38
2018-09-21T10:23:24.031Z,815.63
2018-09-21T10:24:24.077Z,843.75
2018-09-21T10:25:24.098Z,888.75
2018-09-21T10:26:24.122Z,916.88
2018-09-21T10:27:24.168Z,883.13
2018-09-21T10:28:24.316Z,855.00
2018-09-21T10:29:24.212Z,855.00
2018-09-21T10:30:24.240Z,866.25
2018-09-21T10:31:24.263Z,883.13
2018-09-21T10:32:24.288Z,855.00
2018-09-21T10:33:24.337Z,838.13
2018-09-21T10:34:24.353Z,826.88
2018-09-21T10:35:24.395Z,843.75
2018-09-21T10:36:24.430Z,849.38
2018-09-21T10:37:24.444Z,832.50
2018-09-21T10:38:24.468Z,826.88
2018-09-21T10:39:24.495Z,838.13
2018-09-21T10:40:24.590Z,793.13
2018-09-21T10:41:24.576Z,770.63
2018-09-21T10:42:24.675Z,770.63
2018-09-21T10:43:24.621Z,781.88
2018-09-21T10:44:24.647Z,821.25
2018-09-21T10:45:24.672Z,855.00
2018-09-21T10:46:24.712Z,866.25
2018-09-21T10:47:24.741Z,815.63
2018-09-21T10:48:24.763Z,798.75
2018-09-21T10:49:24.789Z,843.75
2018-09-21T10:50:24.826Z,877.50
2018-09-21T10:51:24.853Z,928.13
2018-09-21T10:52:24.878Z,916.88
2018-09-21T10:53:24.916Z,866.25
2018-09-21T10:54:24.943Z,810.00
2018-09-21T10:55:24.968Z,691.88
2018-09-21T10:56:25.006Z,658.13
2018-09-21T10:57:25.032Z,652.50
2018-09-21T10:58:25.057Z,663.75
2018-09-21T10:59:25.095Z,663.75
2018-09-21T11:00:25.147Z,663.75
2018-09-21T11:01:25.147Z,686.25
2018-09-21T11:02:25.198Z,725.63
2018-09-21T11:03:25.210Z,781.88
2018-09-21T11:04:25.236Z,753.75
2018-09-21T11:05:25.263Z,753.75
2018-09-21T11:06:25.300Z,787.50
2018-09-21T11:07:25.327Z,697.50
2018-09-21T11:08:25.353Z,669.38
2018-09-21T11:09:25.390Z,646.88
2018-09-21T11:10:25.416Z,635.63
2018-09-21T11:11:25.442Z,658.13
2018-09-21T11:12:25.480Z,697.50
2018-09-21T11:13:25.508Z,731.25
2018-09-21T11:14:25.535Z,742.50
2018-09-21T11:15:25.571Z,736.88
2018-09-21T11:16:25.595Z,725.63
2018-09-21T11:17:25.620Z,725.63
2018-09-21T11:18:25.659Z,697.50
2018-09-21T11:19:25.685Z,630.00
2018-09-21T11:20:25.714Z,658.13
2018-09-21T11:21:25.748Z,630.00
2018-09-21T11:22:25.775Z,590.63
2018-09-21T11:23:25.799Z,556.88
2018-09-21T11:24:25.839Z,545.63
2018-09-21T11:25:25.865Z,568.13
2018-09-21T11:26:25.891Z,573.75
2018-09-21T11:27:25.929Z,579.38
2018-09-21T11:28:25.954Z,618.75
2018-09-21T11:29:25.980Z,691.88
2018-09-21T11:30:26.019Z,826.88
2018-09-21T11:31:26.045Z,905.63
2018-09-21T11:32:26.070Z,871.88
2018-09-21T11:33:26.096Z,871.88
2018-09-21T11:34:26.133Z,860.63
2018-09-21T11:35:26.159Z,928.13
2018-09-21T11:36:26.185Z,1006.88
2018-09-21T11:37:26.224Z,1051.88
2018-09-21T11:38:26.251Z,1068.75
2018-09-21T11:39:26.287Z,956.25
2018-09-21T11:40:26.314Z,973.13
2018-09-21T11:41:26.339Z,1006.88
2018-09-21T11:42:26.377Z,1006.88
2018-09-21T11:43:26.407Z,916.88
2018-09-21T11:44:26.429Z,894.38
2018-09-21T11:45:26.467Z,911.25
2018-09-21T11:46:26.510Z,933.75
2018-09-21T11:47:26.690Z,894.38
2018-09-21T11:48:26.557Z,793.13
2018-09-21T11:49:26.584Z,798.75
2018-09-21T11:50:26.620Z,815.63
2018-09-21T11:51:26.659Z,804.38
2018-09-21T11:52:26.672Z,793.13
2018-09-21T11:53:26.715Z,725.63
2018-09-21T11:54:26.736Z,703.13
2018-09-21T11:55:26.775Z,714.38
2018-09-21T11:56:26.801Z,675.00
2018-09-21T11:57:26.827Z,691.88
2018-09-21T11:58:26.864Z,725.63
2018-09-21T11:59:26.891Z,691.88
2018-09-21T12:00:26.929Z,663.75
2018-09-21T12:01:26.955Z,646.88
2018-09-21T12:02:26.980Z,635.63
2018-09-21T12:03:27.019Z,658.13
2018-09-21T12:04:27.045Z,652.50
2018-09-21T12:05:27.083Z,596.25
2018-09-21T12:06:27.108Z,534.38
2018-09-21T12:07:27.148Z,506.25
2018-09-21T12:08:27.175Z,444.38
2018-09-21T12:09:27.199Z,511.88
2018-09-21T12:10:27.281Z,556.88
2018-09-21T12:11:27.262Z,556.88
2018-09-21T12:12:27.288Z,579.38
2018-09-21T12:13:27.315Z,613.13
2018-09-21T12:14:27.353Z,658.13
2018-09-21T12:15:27.380Z,697.50
2018-09-21T12:16:27.405Z,731.25
2018-09-21T12:17:27.443Z,742.50
2018-09-21T12:18:27.469Z,815.63
2018-09-21T12:19:27.496Z,866.25
2018-09-21T12:20:27.534Z,866.25
2018-09-21T12:21:27.559Z,826.88
2018-09-21T12:22:27.597Z,832.50
2018-09-21T12:23:27.637Z,855.00
2018-09-21T12:24:27.654Z,860.63
2018-09-21T12:25:27.691Z,815.63
2018-09-21T12:26:27.713Z,781.88
2018-09-21T12:27:27.739Z,815.63
2018-09-21T12:28:27.777Z,838.13
2018-09-21T12:29:27.803Z,815.63
2018-09-21T12:30:27.947Z,776.25
2018-09-21T12:31:27.869Z,736.88
2018-09-21T12:32:27.895Z,720.00
2018-09-21T12:33:27.931Z,686.25
2018-09-21T12:34:27.957Z,613.13
2018-09-21T12:35:27.983Z,556.88
2018-09-21T12:36:28.099Z,551.25
2018-09-21T12:37:28.052Z,523.13
2018-09-21T12:38:28.119Z,534.38
2018-09-21T12:39:28.113Z,562.50
2018-09-21T12:40:28.140Z,523.13
2018-09-21T12:41:28.163Z,478.13
2018-09-21T12:42:28.245Z,455.63
2018-09-21T12:43:28.227Z,444.38
2018-09-21T12:44:28.302Z,478.13
2018-09-21T12:45:28.292Z,523.13
2018-09-21T12:46:28.317Z,568.13
2018-09-21T12:47:28.355Z,579.38